sensor_id;sensor_type;location;lat;lon;timestamp;P1;durP1;ratioP1;P2;durP2;ratioP2
23868;SDS011;12115;47.128;15.422;2022-09-12T00:02:01;0.70;;;0.70;;
23868;SDS011;12115;47.128;15.422;2022-09-12T00:04:29;0.85;;;0.60;;
23868;SDS011;12115;47.128;15.422;2022-09-12T00:06:56;0.30;;;0.30;;
23868;SDS011;12115;47.128;15.422;2022-09-12T00:09:23;3.80;;;0.57;;
23868;SDS011;12115;47.128;15.422;2022-09-12T00:11:50;0.82;;;0.38;;
23868;SDS011;12115;47.128;15.422;2022-09-12T00:14:17;2.72;;;0.47;;
23868;SDS011;12115;47.128;15.422;2022-09-12T00:16:44;3.67;;;0.75;;
23868;SDS011;12115;47.128;15.422;2022-09-12T00:19:12;5.55;;;0.50;;
23868;SDS011;12115;47.128;15.422;2022-09-12T00:21:39;1.80;;;0.45;;
23868;SDS011;12115;47.128;15.422;2022-09-12T00:24:07;1.98;;;0.30;;
23868;SDS011;12115;47.128;15.422;2022-09-12T00:26:34;3.00;;;0.40;;
23868;SDS011;12115;47.128;15.422;2022-09-12T00:29:02;2.83;;;0.40;;
23868;SDS011;12115;47.128;15.422;2022-09-12T00:31:29;2.40;;;0.40;;
23868;SDS011;12115;47.128;15.422;2022-09-12T00:33:57;1.75;;;0.30;;
23868;SDS011;12115;47.128;15.422;2022-09-12T00:36:27;1.05;;;0.60;;
23868;SDS011;12115;47.128;15.422;2022-09-12T00:38:55;0.45;;;0.45;;
23868;SDS011;12115;47.128;15.422;2022-09-12T00:41:24;0.68;;;0.40;;
23868;SDS011;12115;47.128;15.422;2022-09-12T00:43:57;3.75;;;0.40;;
23868;SDS011;12115;47.128;15.422;2022-09-12T00:46:41;1.77;;;0.60;;
23868;SDS011;12115;47.128;15.422;2022-09-12T00:51:56;1.63;;;0.40;;
23868;SDS011;12115;47.128;15.422;2022-09-12T00:54:56;0.47;;;0.45;;
23868;SDS011;12115;47.128;15.422;2022-09-12T00:57:32;1.77;;;0.50;;
23868;SDS011;12115;47.128;15.422;2022-09-12T01:00:08;0.60;;;0.50;;
23868;SDS011;12115;47.128;15.422;2022-09-12T01:02:45;4.40;;;0.80;;
23868;SDS011;12115;47.128;15.422;2022-09-12T01:05:16;1.48;;;0.60;;
23868;SDS011;12115;47.128;15.422;2022-09-12T01:07:44;4.20;;;0.70;;
23868;SDS011;12115;47.128;15.422;2022-09-12T01:10:15;1.40;;;0.70;;
23868;SDS011;12115;47.128;15.422;2022-09-12T01:12:44;1.77;;;0.70;;
23868;SDS011;12115;47.128;15.422;2022-09-12T01:15:13;2.35;;;0.73;;
23868;SDS011;12115;47.128;15.422;2022-09-12T01:20:34;1.02;;;0.55;;
23868;SDS011;12115;47.128;15.422;2022-09-12T01:34:26;0.73;;;0.40;;
23868;SDS011;12115;47.128;15.422;2022-09-12T01:37:07;4.18;;;0.52;;
23868;SDS011;12115;47.128;15.422;2022-09-12T01:40:19;2.28;;;0.50;;
23868;SDS011;12115;47.128;15.422;2022-09-12T01:42:53;1.15;;;0.50;;
23868;SDS011;12115;47.128;15.422;2022-09-12T01:48:35;2.15;;;0.50;;
23868;SDS011;12115;47.128;15.422;2022-09-12T01:51:15;0.88;;;0.57;;
23868;SDS011;12115;47.128;15.422;2022-09-12T01:53:59;2.53;;;0.50;;
23868;SDS011;12115;47.128;15.422;2022-09-12T01:56:33;1.58;;;0.60;;
23868;SDS011;12115;47.128;15.422;2022-09-12T01:59:04;0.88;;;0.50;;
23868;SDS011;12115;47.128;15.422;2022-09-12T02:01:39;0.98;;;0.55;;
23868;SDS011;12115;47.128;15.422;2022-09-12T02:04:16;1.98;;;0.55;;
23868;SDS011;12115;47.128;15.422;2022-09-12T02:09:55;1.92;;;0.60;;
23868;SDS011;12115;47.128;15.422;2022-09-12T02:12:28;1.42;;;0.60;;
23868;SDS011;12115;47.128;15.422;2022-09-12T02:15:03;1.05;;;0.52;;
23868;SDS011;12115;47.128;15.422;2022-09-12T02:17:35;0.90;;;0.43;;
23868;SDS011;12115;47.128;15.422;2022-09-12T02:20:19;1.30;;;0.75;;
23868;SDS011;12115;47.128;15.422;2022-09-12T02:23:13;1.50;;;0.60;;
23868;SDS011;12115;47.128;15.422;2022-09-12T02:25:51;1.15;;;0.57;;
23868;SDS011;12115;47.128;15.422;2022-09-12T02:28:26;1.13;;;0.60;;
23868;SDS011;12115;47.128;15.422;2022-09-12T02:31:09;2.78;;;0.60;;
23868;SDS011;12115;47.128;15.422;2022-09-12T02:37:15;1.75;;;0.98;;
23868;SDS011;12115;47.128;15.422;2022-09-12T02:39:24;4.18;;;0.68;;
23868;SDS011;12115;47.128;15.422;2022-09-12T02:41:51;1.92;;;0.63;;
23868;SDS011;12115;47.128;15.422;2022-09-12T02:44:22;3.70;;;0.70;;
23868;SDS011;12115;47.128;15.422;2022-09-12T02:47:07;1.05;;;0.77;;
23868;SDS011;12115;47.128;15.422;2022-09-12T02:49:39;0.80;;;0.70;;
23868;SDS011;12115;47.128;15.422;2022-09-12T02:52:06;2.78;;;0.70;;
23868;SDS011;12115;47.128;15.422;2022-09-12T02:54:33;2.25;;;0.77;;
23868;SDS011;12115;47.128;15.422;2022-09-12T02:57:04;1.95;;;0.82;;
23868;SDS011;12115;47.128;15.422;2022-09-12T02:59:46;2.38;;;0.77;;
23868;SDS011;12115;47.128;15.422;2022-09-12T03:22:21;1.42;;;0.45;;
23868;SDS011;12115;47.128;15.422;2022-09-12T03:28:05;2.33;;;0.65;;
23868;SDS011;12115;47.128;15.422;2022-09-12T03:30:39;1.20;;;0.80;;
23868;SDS011;12115;47.128;15.422;2022-09-12T03:33:15;1.95;;;0.85;;
23868;SDS011;12115;47.128;15.422;2022-09-12T03:35:44;3.20;;;0.95;;
23868;SDS011;12115;47.128;15.422;2022-09-12T03:38:13;3.53;;;1.33;;
23868;SDS011;12115;47.128;15.422;2022-09-12T03:40:40;1.80;;;1.00;;
23868;SDS011;12115;47.128;15.422;2022-09-12T03:43:08;4.43;;;0.95;;
23868;SDS011;12115;47.128;15.422;2022-09-12T03:45:36;2.85;;;0.70;;
23868;SDS011;12115;47.128;15.422;2022-09-12T03:48:04;1.15;;;0.70;;
23868;SDS011;12115;47.128;15.422;2022-09-12T03:50:31;0.95;;;0.85;;
23868;SDS011;12115;47.128;15.422;2022-09-12T03:52:59;1.02;;;0.80;;
23868;SDS011;12115;47.128;15.422;2022-09-12T03:55:27;0.90;;;0.70;;
23868;SDS011;12115;47.128;15.422;2022-09-12T03:57:55;1.00;;;0.65;;
23868;SDS011;12115;47.128;15.422;2022-09-12T04:00:23;1.20;;;0.90;;
23868;SDS011;12115;47.128;15.422;2022-09-12T04:02:54;3.10;;;1.00;;
23868;SDS011;12115;47.128;15.422;2022-09-12T04:07:50;3.15;;;1.00;;
23868;SDS011;12115;47.128;15.422;2022-09-12T04:10:17;1.02;;;0.70;;
23868;SDS011;12115;47.128;15.422;2022-09-12T04:12:44;1.35;;;0.60;;
23868;SDS011;12115;47.128;15.422;2022-09-12T04:15:11;1.40;;;0.80;;
23868;SDS011;12115;47.128;15.422;2022-09-12T04:17:39;1.88;;;0.90;;
23868;SDS011;12115;47.128;15.422;2022-09-12T04:20:06;1.42;;;0.90;;
23868;SDS011;12115;47.128;15.422;2022-09-12T04:22:33;0.90;;;0.70;;
23868;SDS011;12115;47.128;15.422;2022-09-12T04:25:00;3.30;;;0.90;;
23868;SDS011;12115;47.128;15.422;2022-09-12T04:27:27;1.70;;;0.88;;
23868;SDS011;12115;47.128;15.422;2022-09-12T04:29:54;1.42;;;0.82;;
23868;SDS011;12115;47.128;15.422;2022-09-12T04:32:22;1.75;;;0.80;;
23868;SDS011;12115;47.128;15.422;2022-09-12T04:34:49;1.90;;;1.00;;
23868;SDS011;12115;47.128;15.422;2022-09-12T04:37:17;0.93;;;0.70;;
23868;SDS011;12115;47.128;15.422;2022-09-12T04:39:44;2.22;;;0.70;;
23868;SDS011;12115;47.128;15.422;2022-09-12T04:42:14;2.67;;;0.70;;
23868;SDS011;12115;47.128;15.422;2022-09-12T04:44:42;1.30;;;1.02;;
23868;SDS011;12115;47.128;15.422;2022-09-12T04:47:09;7.50;;;1.42;;
23868;SDS011;12115;47.128;15.422;2022-09-12T04:49:36;2.47;;;0.90;;
23868;SDS011;12115;47.128;15.422;2022-09-12T04:52:03;3.20;;;1.17;;
23868;SDS011;12115;47.128;15.422;2022-09-12T04:54:30;1.27;;;1.05;;
23868;SDS011;12115;47.128;15.422;2022-09-12T04:56:57;3.72;;;1.10;;
23868;SDS011;12115;47.128;15.422;2022-09-12T04:59:25;2.97;;;1.10;;
23868;SDS011;12115;47.128;15.422;2022-09-12T05:01:52;3.05;;;0.70;;
23868;SDS011;12115;47.128;15.422;2022-09-12T05:04:19;4.47;;;1.10;;
23868;SDS011;12115;47.128;15.422;2022-09-12T05:06:46;1.67;;;0.77;;
23868;SDS011;12115;47.128;15.422;2022-09-12T05:09:14;3.55;;;1.10;;
23868;SDS011;12115;47.128;15.422;2022-09-12T05:11:42;1.60;;;0.70;;
23868;SDS011;12115;47.128;15.422;2022-09-12T05:14:30;1.42;;;0.70;;
23868;SDS011;12115;47.128;15.422;2022-09-12T05:16:58;3.17;;;1.10;;
23868;SDS011;12115;47.128;15.422;2022-09-12T05:19:27;2.40;;;0.85;;
23868;SDS011;12115;47.128;15.422;2022-09-12T05:21:56;1.98;;;0.70;;
23868;SDS011;12115;47.128;15.422;2022-09-12T05:24:23;1.85;;;0.98;;
23868;SDS011;12115;47.128;15.422;2022-09-12T05:26:50;3.08;;;1.30;;
23868;SDS011;12115;47.128;15.422;2022-09-12T05:29:18;2.72;;;1.00;;
23868;SDS011;12115;47.128;15.422;2022-09-12T05:31:45;1.92;;;0.93;;
23868;SDS011;12115;47.128;15.422;2022-09-12T05:34:18;1.17;;;1.00;;
23868;SDS011;12115;47.128;15.422;2022-09-12T05:36:45;8.13;;;0.95;;
23868;SDS011;12115;47.128;15.422;2022-09-12T05:39:12;4.30;;;1.27;;
23868;SDS011;12115;47.128;15.422;2022-09-12T05:41:40;6.25;;;1.20;;
23868;SDS011;12115;47.128;15.422;2022-09-12T05:44:09;1.80;;;0.95;;
23868;SDS011;12115;47.128;15.422;2022-09-12T05:46:38;3.83;;;0.80;;
23868;SDS011;12115;47.128;15.422;2022-09-12T05:49:08;1.17;;;0.90;;
23868;SDS011;12115;47.128;15.422;2022-09-12T05:51:39;1.10;;;0.70;;
23868;SDS011;12115;47.128;15.422;2022-09-12T05:54:11;2.70;;;1.02;;
23868;SDS011;12115;47.128;15.422;2022-09-12T05:56:41;3.65;;;1.10;;
23868;SDS011;12115;47.128;15.422;2022-09-12T05:59:19;4.22;;;1.10;;
23868;SDS011;12115;47.128;15.422;2022-09-12T06:01:46;1.75;;;1.17;;
23868;SDS011;12115;47.128;15.422;2022-09-12T06:04:14;2.50;;;1.20;;
23868;SDS011;12115;47.128;15.422;2022-09-12T06:06:42;4.53;;;1.17;;
23868;SDS011;12115;47.128;15.422;2022-09-12T06:09:14;2.13;;;1.20;;
23868;SDS011;12115;47.128;15.422;2022-09-12T06:11:42;1.15;;;1.00;;
23868;SDS011;12115;47.128;15.422;2022-09-12T06:14:12;4.20;;;1.45;;
23868;SDS011;12115;47.128;15.422;2022-09-12T06:16:40;1.95;;;1.42;;
23868;SDS011;12115;47.128;15.422;2022-09-12T06:19:26;2.80;;;1.40;;
23868;SDS011;12115;47.128;15.422;2022-09-12T06:21:53;3.33;;;1.35;;
23868;SDS011;12115;47.128;15.422;2022-09-12T06:24:20;2.38;;;1.40;;
23868;SDS011;12115;47.128;15.422;2022-09-12T06:26:48;3.83;;;1.20;;
23868;SDS011;12115;47.128;15.422;2022-09-12T06:29:18;1.95;;;1.00;;
23868;SDS011;12115;47.128;15.422;2022-09-12T06:31:45;3.53;;;1.10;;
23868;SDS011;12115;47.128;15.422;2022-09-12T06:34:13;3.28;;;1.10;;
23868;SDS011;12115;47.128;15.422;2022-09-12T06:36:42;0.98;;;0.88;;
23868;SDS011;12115;47.128;15.422;2022-09-12T06:39:15;2.05;;;0.80;;
23868;SDS011;12115;47.128;15.422;2022-09-12T06:41:43;2.38;;;1.00;;
23868;SDS011;12115;47.128;15.422;2022-09-12T06:44:19;2.30;;;1.10;;
23868;SDS011;12115;47.128;15.422;2022-09-12T06:46:47;1.00;;;0.90;;
23868;SDS011;12115;47.128;15.422;2022-09-12T06:49:15;4.40;;;1.10;;
23868;SDS011;12115;47.128;15.422;2022-09-12T06:51:43;4.20;;;1.00;;
23868;SDS011;12115;47.128;15.422;2022-09-12T06:54:13;2.45;;;0.90;;
23868;SDS011;12115;47.128;15.422;2022-09-12T06:56:42;1.70;;;0.95;;
23868;SDS011;12115;47.128;15.422;2022-09-12T06:59:10;1.42;;;0.70;;
23868;SDS011;12115;47.128;15.422;2022-09-12T07:01:38;1.67;;;0.80;;
23868;SDS011;12115;47.128;15.422;2022-09-12T07:04:06;2.10;;;1.00;;
23868;SDS011;12115;47.128;15.422;2022-09-12T07:06:35;3.63;;;0.98;;
23868;SDS011;12115;47.128;15.422;2022-09-12T07:09:05;0.68;;;0.60;;
23868;SDS011;12115;47.128;15.422;2022-09-12T07:11:36;2.30;;;1.00;;
23868;SDS011;12115;47.128;15.422;2022-09-12T07:14:05;1.77;;;0.80;;
23868;SDS011;12115;47.128;15.422;2022-09-12T07:16:33;3.08;;;0.80;;
23868;SDS011;12115;47.128;15.422;2022-09-12T07:19:02;2.03;;;0.90;;
23868;SDS011;12115;47.128;15.422;2022-09-12T07:21:31;2.80;;;0.98;;
23868;SDS011;12115;47.128;15.422;2022-09-12T07:24:01;3.83;;;1.05;;
23868;SDS011;12115;47.128;15.422;2022-09-12T07:26:28;3.88;;;0.93;;
23868;SDS011;12115;47.128;15.422;2022-09-12T07:28:56;4.65;;;0.80;;
23868;SDS011;12115;47.128;15.422;2022-09-12T07:31:44;3.72;;;0.65;;
23868;SDS011;12115;47.128;15.422;2022-09-12T07:34:12;1.63;;;1.02;;
23868;SDS011;12115;47.128;15.422;2022-09-12T07:36:39;2.40;;;1.00;;
23868;SDS011;12115;47.128;15.422;2022-09-12T07:39:06;2.45;;;0.70;;
23868;SDS011;12115;47.128;15.422;2022-09-12T07:41:33;2.15;;;1.25;;
23868;SDS011;12115;47.128;15.422;2022-09-12T07:44:01;4.95;;;1.02;;
23868;SDS011;12115;47.128;15.422;2022-09-12T07:46:29;1.90;;;0.70;;
23868;SDS011;12115;47.128;15.422;2022-09-12T07:48:58;0.90;;;0.75;;
23868;SDS011;12115;47.128;15.422;2022-09-12T07:51:26;3.47;;;0.70;;
23868;SDS011;12115;47.128;15.422;2022-09-12T07:53:54;2.15;;;0.90;;
23868;SDS011;12115;47.128;15.422;2022-09-12T07:56:22;2.70;;;0.57;;
23868;SDS011;12115;47.128;15.422;2022-09-12T07:58:55;1.58;;;0.90;;
23868;SDS011;12115;47.128;15.422;2022-09-12T08:01:22;2.30;;;0.85;;
23868;SDS011;12115;47.128;15.422;2022-09-12T08:03:52;3.05;;;1.00;;
23868;SDS011;12115;47.128;15.422;2022-09-12T08:06:21;3.85;;;0.98;;
23868;SDS011;12115;47.128;15.422;2022-09-12T08:08:50;1.88;;;0.90;;
23868;SDS011;12115;47.128;15.422;2022-09-12T08:11:19;1.75;;;0.80;;
23868;SDS011;12115;47.128;15.422;2022-09-12T08:13:48;1.23;;;0.70;;
23868;SDS011;12115;47.128;15.422;2022-09-12T08:16:22;3.42;;;0.98;;
23868;SDS011;12115;47.128;15.422;2022-09-12T08:18:50;5.38;;;0.80;;
23868;SDS011;12115;47.128;15.422;2022-09-12T08:21:18;2.47;;;0.93;;
23868;SDS011;12115;47.128;15.422;2022-09-12T08:23:50;2.25;;;0.70;;
23868;SDS011;12115;47.128;15.422;2022-09-12T08:26:22;1.08;;;0.50;;
23868;SDS011;12115;47.128;15.422;2022-09-12T08:28:50;1.40;;;0.80;;
23868;SDS011;12115;47.128;15.422;2022-09-12T08:31:19;1.10;;;0.68;;
23868;SDS011;12115;47.128;15.422;2022-09-12T08:33:47;0.80;;;0.80;;
23868;SDS011;12115;47.128;15.422;2022-09-12T08:36:16;2.28;;;0.57;;
23868;SDS011;12115;47.128;15.422;2022-09-12T08:38:54;1.42;;;0.70;;
23868;SDS011;12115;47.128;15.422;2022-09-12T08:57:50;5.28;;;1.30;;
23868;SDS011;12115;47.128;15.422;2022-09-12T09:00:18;4.30;;;1.00;;
23868;SDS011;12115;47.128;15.422;2022-09-12T09:10:50;6.57;;;1.30;;
23868;SDS011;12115;47.128;15.422;2022-09-12T09:13:31;2.83;;;1.15;;
23868;SDS011;12115;47.128;15.422;2022-09-12T09:16:32;3.80;;;1.10;;
23868;SDS011;12115;47.128;15.422;2022-09-12T09:19:03;11.07;;;1.67;;
23868;SDS011;12115;47.128;15.422;2022-09-12T09:24:17;6.65;;;1.33;;
23868;SDS011;12115;47.128;15.422;2022-09-12T09:26:57;3.95;;;1.30;;
23868;SDS011;12115;47.128;15.422;2022-09-12T09:29:32;6.00;;;1.20;;
23868;SDS011;12115;47.128;15.422;2022-09-12T09:34:56;3.00;;;1.17;;
23868;SDS011;12115;47.128;15.422;2022-09-12T09:40:17;6.30;;;1.13;;
23868;SDS011;12115;47.128;15.422;2022-09-12T09:42:52;3.85;;;0.90;;
23868;SDS011;12115;47.128;15.422;2022-09-12T09:45:28;3.33;;;0.80;;
23868;SDS011;12115;47.128;15.422;2022-09-12T09:48:00;3.05;;;0.88;;
23868;SDS011;12115;47.128;15.422;2022-09-12T09:50:35;4.03;;;0.82;;
23868;SDS011;12115;47.128;15.422;2022-09-12T09:53:04;8.05;;;1.00;;
23868;SDS011;12115;47.128;15.422;2022-09-12T09:55:43;2.08;;;0.70;;
23868;SDS011;12115;47.128;15.422;2022-09-12T09:58:11;6.03;;;1.10;;
23868;SDS011;12115;47.128;15.422;2022-09-12T10:00:58;4.57;;;0.70;;
23868;SDS011;12115;47.128;15.422;2022-09-12T10:03:37;4.43;;;1.02;;
23868;SDS011;12115;47.128;15.422;2022-09-12T10:06:51;2.45;;;0.63;;
23868;SDS011;12115;47.128;15.422;2022-09-12T10:09:32;1.10;;;0.88;;
23868;SDS011;12115;47.128;15.422;2022-09-12T10:11:53;3.92;;;0.80;;
23868;SDS011;12115;47.128;15.422;2022-09-12T10:16:55;2.13;;;0.68;;
23868;SDS011;12115;47.128;15.422;2022-09-12T10:19:32;2.63;;;0.70;;
23868;SDS011;12115;47.128;15.422;2022-09-12T10:22:01;3.50;;;0.60;;
23868;SDS011;12115;47.128;15.422;2022-09-12T10:24:34;1.10;;;0.50;;
23868;SDS011;12115;47.128;15.422;2022-09-12T10:27:07;0.70;;;0.45;;
23868;SDS011;12115;47.128;15.422;2022-09-12T10:32:08;1.25;;;0.50;;
23868;SDS011;12115;47.128;15.422;2022-09-12T10:34:41;0.82;;;0.30;;
23868;SDS011;12115;47.128;15.422;2022-09-12T10:39:58;7.13;;;0.60;;
23868;SDS011;12115;47.128;15.422;2022-09-12T10:47:50;0.45;;;0.30;;
23868;SDS011;12115;47.128;15.422;2022-09-12T10:51:01;1.38;;;0.70;;
23868;SDS011;12115;47.128;15.422;2022-09-12T10:55:47;0.60;;;0.30;;
23868;SDS011;12115;47.128;15.422;2022-09-12T10:58:23;0.50;;;0.30;;
23868;SDS011;12115;47.128;15.422;2022-09-12T11:01:05;0.65;;;0.30;;
23868;SDS011;12115;47.128;15.422;2022-09-12T11:06:57;0.45;;;0.30;;
23868;SDS011;12115;47.128;15.422;2022-09-12T11:15:34;2.25;;;0.57;;
23868;SDS011;12115;47.128;15.422;2022-09-12T11:29:20;2.33;;;0.43;;
23868;SDS011;12115;47.128;15.422;2022-09-12T11:37:25;1.77;;;0.30;;
23868;SDS011;12115;47.128;15.422;2022-09-12T11:40:37;0.80;;;0.20;;
23868;SDS011;12115;47.128;15.422;2022-09-12T11:46:19;0.93;;;0.45;;
23868;SDS011;12115;47.128;15.422;2022-09-12T11:48:56;0.43;;;0.30;;
23868;SDS011;12115;47.128;15.422;2022-09-12T11:51:28;0.40;;;0.40;;
23868;SDS011;12115;47.128;15.422;2022-09-12T11:56:41;1.38;;;0.30;;
23868;SDS011;12115;47.128;15.422;2022-09-12T11:59:14;3.00;;;0.50;;
23868;SDS011;12115;47.128;15.422;2022-09-12T12:01:52;0.40;;;0.40;;
23868;SDS011;12115;47.128;15.422;2022-09-12T12:04:28;0.65;;;0.38;;
23868;SDS011;12115;47.128;15.422;2022-09-12T12:07:07;1.73;;;0.45;;
23868;SDS011;12115;47.128;15.422;2022-09-12T12:09:46;0.47;;;0.22;;
23868;SDS011;12115;47.128;15.422;2022-09-12T12:12:18;0.30;;;0.30;;
23868;SDS011;12115;47.128;15.422;2022-09-12T12:14:51;0.30;;;0.30;;
23868;SDS011;12115;47.128;15.422;2022-09-12T12:17:21;0.77;;;0.40;;
23868;SDS011;12115;47.128;15.422;2022-09-12T12:19:59;1.00;;;0.30;;
23868;SDS011;12115;47.128;15.422;2022-09-12T12:22:34;4.05;;;0.50;;
23868;SDS011;12115;47.128;15.422;2022-09-12T12:25:05;0.80;;;0.40;;
23868;SDS011;12115;47.128;15.422;2022-09-12T12:33:06;0.35;;;0.32;;
23868;SDS011;12115;47.128;15.422;2022-09-12T12:43:44;2.13;;;0.60;;
23868;SDS011;12115;47.128;15.422;2022-09-12T12:46:13;1.75;;;0.40;;
23868;SDS011;12115;47.128;15.422;2022-09-12T12:54:27;0.30;;;0.30;;
23868;SDS011;12115;47.128;15.422;2022-09-12T12:59:59;0.85;;;0.40;;
23868;SDS011;12115;47.128;15.422;2022-09-12T13:02:33;0.70;;;0.50;;
23868;SDS011;12115;47.128;15.422;2022-09-12T13:07:36;0.40;;;0.32;;
23868;SDS011;12115;47.128;15.422;2022-09-12T13:10:06;1.95;;;0.40;;
23868;SDS011;12115;47.128;15.422;2022-09-12T13:12:35;1.60;;;0.40;;
23868;SDS011;12115;47.128;15.422;2022-09-12T13:18:01;0.90;;;0.50;;
23868;SDS011;12115;47.128;15.422;2022-09-12T13:20:32;1.97;;;0.30;;
23868;SDS011;12115;47.128;15.422;2022-09-12T13:23:03;0.70;;;0.40;;
23868;SDS011;12115;47.128;15.422;2022-09-12T13:25:31;2.05;;;0.40;;
23868;SDS011;12115;47.128;15.422;2022-09-12T13:30:39;1.02;;;0.45;;
23868;SDS011;12115;47.128;15.422;2022-09-12T13:33:30;0.52;;;0.30;;
23868;SDS011;12115;47.128;15.422;2022-09-12T13:36:12;2.03;;;0.60;;
23868;SDS011;12115;47.128;15.422;2022-09-12T13:39:10;4.10;;;0.50;;
23868;SDS011;12115;47.128;15.422;2022-09-12T13:44:27;1.58;;;0.70;;
23868;SDS011;12115;47.128;15.422;2022-09-12T13:46:57;2.65;;;0.50;;
23868;SDS011;12115;47.128;15.422;2022-09-12T13:52:07;1.77;;;0.50;;
23868;SDS011;12115;47.128;15.422;2022-09-12T13:54:47;2.95;;;0.65;;
23868;SDS011;12115;47.128;15.422;2022-09-12T13:57:33;2.20;;;0.60;;
23868;SDS011;12115;47.128;15.422;2022-09-12T14:00:11;2.55;;;0.60;;
23868;SDS011;12115;47.128;15.422;2022-09-12T14:02:43;0.80;;;0.55;;
23868;SDS011;12115;47.128;15.422;2022-09-12T14:05:22;0.60;;;0.60;;
23868;SDS011;12115;47.128;15.422;2022-09-12T14:07:54;1.95;;;0.60;;
23868;SDS011;12115;47.128;15.422;2022-09-12T14:10:28;2.28;;;0.77;;
23868;SDS011;12115;47.128;15.422;2022-09-12T14:13:00;0.50;;;0.50;;
23868;SDS011;12115;47.128;15.422;2022-09-12T14:18:00;2.67;;;0.47;;
23868;SDS011;12115;47.128;15.422;2022-09-12T14:20:29;2.70;;;0.50;;
23868;SDS011;12115;47.128;15.422;2022-09-12T14:23:01;2.20;;;0.60;;
23868;SDS011;12115;47.128;15.422;2022-09-12T14:25:37;1.50;;;0.70;;
23868;SDS011;12115;47.128;15.422;2022-09-12T14:28:09;1.10;;;0.57;;
23868;SDS011;12115;47.128;15.422;2022-09-12T14:30:39;0.93;;;0.40;;
23868;SDS011;12115;47.128;15.422;2022-09-12T14:35:38;3.25;;;0.50;;
23868;SDS011;12115;47.128;15.422;2022-09-12T14:40:43;2.35;;;0.52;;
23868;SDS011;12115;47.128;15.422;2022-09-12T14:46:02;0.50;;;0.47;;
23868;SDS011;12115;47.128;15.422;2022-09-12T14:48:36;1.10;;;0.55;;
23868;SDS011;12115;47.128;15.422;2022-09-12T14:51:31;1.60;;;0.70;;
23868;SDS011;12115;47.128;15.422;2022-09-12T14:54:00;1.92;;;0.60;;
23868;SDS011;12115;47.128;15.422;2022-09-12T14:56:41;0.73;;;0.40;;
23868;SDS011;12115;47.128;15.422;2022-09-12T15:07:23;0.70;;;0.40;;
23868;SDS011;12115;47.128;15.422;2022-09-12T15:12:38;1.20;;;0.60;;
23868;SDS011;12115;47.128;15.422;2022-09-12T15:15:12;1.45;;;0.70;;
23868;SDS011;12115;47.128;15.422;2022-09-12T15:17:45;0.85;;;0.45;;
23868;SDS011;12115;47.128;15.422;2022-09-12T15:20:12;0.73;;;0.50;;
23868;SDS011;12115;47.128;15.422;2022-09-12T15:22:40;2.25;;;0.50;;
23868;SDS011;12115;47.128;15.422;2022-09-12T15:25:08;0.57;;;0.55;;
23868;SDS011;12115;47.128;15.422;2022-09-12T15:27:37;0.65;;;0.50;;
23868;SDS011;12115;47.128;15.422;2022-09-12T15:30:09;3.40;;;0.70;;
23868;SDS011;12115;47.128;15.422;2022-09-12T15:32:39;1.95;;;0.70;;
23868;SDS011;12115;47.128;15.422;2022-09-12T15:35:28;0.43;;;0.43;;
23868;SDS011;12115;47.128;15.422;2022-09-12T15:37:57;0.90;;;0.50;;
23868;SDS011;12115;47.128;15.422;2022-09-12T15:40:24;1.33;;;0.57;;
23868;SDS011;12115;47.128;15.422;2022-09-12T15:42:51;1.48;;;0.70;;
23868;SDS011;12115;47.128;15.422;2022-09-12T15:45:22;1.92;;;0.70;;
23868;SDS011;12115;47.128;15.422;2022-09-12T15:47:53;0.73;;;0.50;;
23868;SDS011;12115;47.128;15.422;2022-09-12T15:50:21;0.57;;;0.52;;
23868;SDS011;12115;47.128;15.422;2022-09-12T15:52:48;1.23;;;0.60;;
23868;SDS011;12115;47.128;15.422;2022-09-12T15:55:20;0.60;;;0.50;;
23868;SDS011;12115;47.128;15.422;2022-09-12T15:57:53;0.68;;;0.47;;
23868;SDS011;12115;47.128;15.422;2022-09-12T16:00:21;1.48;;;0.60;;
23868;SDS011;12115;47.128;15.422;2022-09-12T16:02:49;0.75;;;0.75;;
23868;SDS011;12115;47.128;15.422;2022-09-12T16:05:19;1.25;;;0.52;;
23868;SDS011;12115;47.128;15.422;2022-09-12T16:07:51;0.93;;;0.55;;
23868;SDS011;12115;47.128;15.422;2022-09-12T16:10:28;2.97;;;0.95;;
23868;SDS011;12115;47.128;15.422;2022-09-12T16:12:56;1.38;;;0.70;;
23868;SDS011;12115;47.128;15.422;2022-09-12T16:15:24;1.23;;;0.70;;
23868;SDS011;12115;47.128;15.422;2022-09-12T16:17:51;1.92;;;0.75;;
23868;SDS011;12115;47.128;15.422;2022-09-12T16:20:19;1.00;;;0.75;;
23868;SDS011;12115;47.128;15.422;2022-09-12T16:22:47;1.95;;;0.70;;
23868;SDS011;12115;47.128;15.422;2022-09-12T16:25:14;2.47;;;0.70;;
23868;SDS011;12115;47.128;15.422;2022-09-12T16:27:42;0.77;;;0.63;;
23868;SDS011;12115;47.128;15.422;2022-09-12T16:30:10;0.73;;;0.63;;
23868;SDS011;12115;47.128;15.422;2022-09-12T16:32:38;2.72;;;0.77;;
23868;SDS011;12115;47.128;15.422;2022-09-12T16:35:05;3.72;;;0.77;;
23868;SDS011;12115;47.128;15.422;2022-09-12T16:37:33;3.28;;;0.70;;
23868;SDS011;12115;47.128;15.422;2022-09-12T16:40:04;2.03;;;0.70;;
23868;SDS011;12115;47.128;15.422;2022-09-12T16:42:32;0.65;;;0.60;;
23868;SDS011;12115;47.128;15.422;2022-09-12T16:44:59;1.70;;;0.70;;
23868;SDS011;12115;47.128;15.422;2022-09-12T16:47:26;1.10;;;0.80;;
23868;SDS011;12115;47.128;15.422;2022-09-12T16:49:57;2.10;;;0.70;;
23868;SDS011;12115;47.128;15.422;2022-09-12T16:52:25;1.35;;;0.43;;
23868;SDS011;12115;47.128;15.422;2022-09-12T16:54:52;2.63;;;0.70;;
23868;SDS011;12115;47.128;15.422;2022-09-12T16:57:19;1.30;;;0.73;;
23868;SDS011;12115;47.128;15.422;2022-09-12T16:59:46;1.60;;;0.55;;
23868;SDS011;12115;47.128;15.422;2022-09-12T17:02:13;1.20;;;0.70;;
23868;SDS011;12115;47.128;15.422;2022-09-12T17:04:40;3.67;;;0.90;;
23868;SDS011;12115;47.128;15.422;2022-09-12T17:07:07;1.05;;;0.70;;
23868;SDS011;12115;47.128;15.422;2022-09-12T17:09:34;1.92;;;0.98;;
23868;SDS011;12115;47.128;15.422;2022-09-12T17:12:01;2.03;;;0.90;;
23868;SDS011;12115;47.128;15.422;2022-09-12T17:14:29;3.42;;;0.90;;
23868;SDS011;12115;47.128;15.422;2022-09-12T17:16:56;3.50;;;0.80;;
23868;SDS011;12115;47.128;15.422;2022-09-12T17:19:24;1.80;;;0.85;;
23868;SDS011;12115;47.128;15.422;2022-09-12T17:21:53;3.67;;;0.93;;
23868;SDS011;12115;47.128;15.422;2022-09-12T17:24:21;1.17;;;0.90;;
23868;SDS011;12115;47.128;15.422;2022-09-12T17:26:49;2.30;;;0.80;;
23868;SDS011;12115;47.128;15.422;2022-09-12T17:29:17;4.53;;;1.00;;
23868;SDS011;12115;47.128;15.422;2022-09-12T17:31:44;1.42;;;1.13;;
23868;SDS011;12115;47.128;15.422;2022-09-12T17:34:12;1.30;;;1.20;;
23868;SDS011;12115;47.128;15.422;2022-09-12T17:36:43;1.30;;;0.85;;
23868;SDS011;12115;47.128;15.422;2022-09-12T17:39:12;1.40;;;0.85;;
23868;SDS011;12115;47.128;15.422;2022-09-12T17:41:40;2.42;;;1.40;;
23868;SDS011;12115;47.128;15.422;2022-09-12T17:44:09;5.13;;;1.05;;
23868;SDS011;12115;47.128;15.422;2022-09-12T17:46:39;1.00;;;1.00;;
23868;SDS011;12115;47.128;15.422;2022-09-12T17:49:07;1.20;;;1.10;;
23868;SDS011;12115;47.128;15.422;2022-09-12T17:51:39;2.00;;;1.17;;
23868;SDS011;12115;47.128;15.422;2022-09-12T17:54:09;2.65;;;1.10;;
23868;SDS011;12115;47.128;15.422;2022-09-12T17:56:44;2.58;;;1.17;;
23868;SDS011;12115;47.128;15.422;2022-09-12T17:59:13;3.15;;;1.20;;
23868;SDS011;12115;47.128;15.422;2022-09-12T18:01:42;1.33;;;1.20;;
23868;SDS011;12115;47.128;15.422;2022-09-12T18:04:28;1.27;;;1.17;;
23868;SDS011;12115;47.128;15.422;2022-09-12T18:06:56;2.60;;;1.27;;
23868;SDS011;12115;47.128;15.422;2022-09-12T18:09:26;3.42;;;1.30;;